Stations météo

Publicité
Mende, France (7554): Température de l'air & dewpoint: 14.08.2017 19:00:00 - 20.08.2017 19:00:00 (CEST)Mende, France (7554): Température de l'air 5cm: 14.08.2017 19:00:00 - 20.08.2017 19:00:00 (CEST)Mende, France (7554): Température de l'air -20cm & Température de l'air -100cm: 14.08.2017 19:00:00 - 20.08.2017 19:00:00 (CEST)Mende, France (7554): Vitesse du vent & gusts: 14.08.2017 19:00:00 - 20.08.2017 19:00:00 (CEST)Mende, France (7554): Direction du vent: 14.08.2017 19:00:00 - 20.08.2017 19:00:00 (CEST)Mende, France (7554): visibility: 14.08.2017 19:00:00 - 20.08.2017 19:00:00 (CEST)Mende, France (7554): Ensoleillement: 14.08.2017 19:00:00 - 20.08.2017 19:00:00 (CEST)Mende, France (7554): Quantités de précipitations: 14.08.2017 19:00:00 - 20.08.2017 19:00:00 (CEST)
Date & Time tt [°C] td [°C] tt 5cm [°C] tt -20cm [°C] tt -100cm [°C] ff [km/h] ff [knt] fx [km/h] fx [knt] dd vv [km] sd [min] rr [mm]
20.08.2017 19:00:00 20,3 6,2 24,4 20,4 17,8 14 8 35 19 NNE 20 60 0,0
20.08.2017 18:00:00 21,8 6,1 26,8 20,2 17,9 19 10 39 21 NNW 20 60 0,0
20.08.2017 17:00:00 21,3 6,0 26,3 20,2 17,9 22 12 41 22 N 20 60 0,0
20.08.2017 16:00:00 21,1 6,6 27,3 20,2 17,9 17 9 41 22 N 20 60 0,0
20.08.2017 15:00:00 20,9 5,3 27,2 20,3 17,9 18 10 37 20 N 20 60 0,0
20.08.2017 14:00:00 19,5 5,2 25,7 20,4 17,9 19 10 41 22 NNE 20 60 0,0
20.08.2017 13:00:00 18,1 5,6 23,4 20,5 17,8 22 12 42 23 N 20 60 0,0
20.08.2017 12:00:00 17,2 4,5 22,4 20,7 17,8 16 8 42 23 N 20 60 0,0
20.08.2017 11:00:00 15,6 4,6 21,2 20,8 17,9 18 10 44 24 NE 20 60 0,0
20.08.2017 10:00:00 14,1 4,9 15,1 21,0 17,8 9 5 28 15 ENE 20 60 0,0
20.08.2017 09:00:00 11,9 4,6 9,6 21,2 17,8 6 4 18 10 NE 20 60 0,0
20.08.2017 08:00:00 9,2 4,6 5,8 21,3 17,8 4 2 22 12 SE 20 24 0,0
20.08.2017 07:00:00 8,6 4,6 3,8 21,5 17,9 6 3 19 10 NNW 20 0 0,0
20.08.2017 06:00:00 7,8 4,6 3,9 21,5 17,9 3 2 8 4 WNW 20 0 0,0
20.08.2017 05:00:00 8,5 4,7 4,7 21,7 17,9 0 0 19 10 N 20 0 0,0
20.08.2017 04:00:00 8,0 4,8 4,5 21,7 17,9 2 1 7 4 WSW 20 0 0,0
20.08.2017 03:00:00 8,7 4,7 5,2 21,7 17,8 0 0 18 10 N 20 0 0,0
20.08.2017 02:00:00 10,1 4,9 6,7 21,7 17,8 4 2 19 10 NW 20 0 0,0
20.08.2017 01:00:00 11,5 4,9 10,0 21,7 17,8 11 6 29 16 N 20 0 0,0
20.08.2017 00:00:00 12,0 5,2 9,4 21,6 17,9 14 7 27 15 N 20 0 0,0
19.08.2017 23:00:00 12,6 5,0 10,0 21,5 17,7 5 3 20 11 NNW 20 0 0,0
19.08.2017 22:00:00 13,6 5,5 12,1 21,3 17,8 9 5 19 10 W 20 0 0,0
19.08.2017 21:00:00 15,1 5,6 13,4 21,2 17,7 11 6 22 12 WNW 20 0 0,0
19.08.2017 20:00:00 18,8 5,3 18,4 21,0 17,9 14 7 28 15 NW 20 50 0,0
19.08.2017 19:00:00 21,2 5,9 24,8 20,9 17,9 18 10 33 18 WNW 20 60 0,0
19.08.2017 18:00:00 22,1 5,5 24,3 20,8 17,7 19 10 38 20 NW 20 60 0,0
19.08.2017 17:00:00 23,1 3,1 28,3 20,8 17,9 18 10 35 19 WNW 20 60 0,0
19.08.2017 16:00:00 22,7 3,2 29,6 20,8 17,8 18 10 35 19 NW 20 60 0,0
19.08.2017 15:00:00 21,6 -3,0 30,2 20,8 17,8 17 9 40 22 NNW 20 60 0,0
19.08.2017 14:00:00 22,3 1,3 28,4 20,9 17,9 19 10 36 19 NW 20 60 0,0
19.08.2017 13:00:00 20,4 4,8 25,8 21,0 17,7 18 10 35 19 N 20 60 0,0
19.08.2017 12:00:00 18,8 7,2 24,0 21,2 17,9 10 6 27 15 NNW 20 60 0,0
19.08.2017 11:00:00 17,4 7,7 18,6 21,3 17,7 17 9 28 15 NNW 20 60 0,0
19.08.2017 10:00:00 14,4 8,1 16,3 21,4 17,8 16 9 25 13 N 20 60 0,0
19.08.2017 09:00:00 13,3 9,0 12,0 21,5 17,9 13 7 24 13 NNW 20 53 0,0
19.08.2017 08:00:00 11,8 9,5 9,9 21,6 17,7 11 6 18 10 N 20 1 0,0
19.08.2017 07:00:00 11,6 9,7 8,9 21,7 17,9 8 4 22 12 NNW 20 0 0,0
19.08.2017 06:00:00 12,0 10,1 9,7 21,8 17,8 9 5 18 10 N 20 0 0,0
19.08.2017 05:00:00 12,0 10,2 9,5 21,8 17,8 2 1 18 10 W 20 0 0,0
19.08.2017 04:00:00 12,1 10,2 8,9 21,9 17,8 6 4 14 8 WSW 20 0 0,0
19.08.2017 03:00:00 13,2 10,6 11,6 21,9 17,8 9 5 18 10 NW 20 0 0,0
19.08.2017 02:00:00 13,8 11,0 12,0 21,8 17,8 11 6 22 12 NW 20 0 0,0
19.08.2017 01:00:00 15,1 12,0 13,5 21,8 17,9 8 4 15 8 W 20 0 0,0
19.08.2017 00:00:00 15,7 12,3 14,8 21,7 17,9 11 6 23 12 NW 20 0 0,0
18.08.2017 23:00:00 16,5 13,0 15,2 21,6 17,9 11 6 22 12 NNW 20 0 0,0
18.08.2017 22:00:00 17,9 13,4 17,0 21,5 17,7 14 8 31 17 NW 20 0 0,0
18.08.2017 21:00:00 19,5 13,7 19,0 21,3 18,0 22 12 31 17 NNW 20 0 0,0
18.08.2017 20:00:00 20,9 14,3 20,8 21,2 17,7 20 11 27 15 NNW 20 0 0,0
18.08.2017 19:00:00 22,2 14,3 23,0 21,0 17,6 22 12 32 18 NNW 20 0 0,0
18.08.2017 18:00:00 23,3 14,6 24,6 20,9 17,6 14 8 39 21 NNW 20 8 0,0
18.08.2017 17:00:00 26,9 15,3 30,2 20,8 17,7 14 8 39 21 NW 20 54 0,0
18.08.2017 16:00:00 27,7 14,3 29,6 20,8 17,9 20 11 37 20 WNW 20 40 0,0
18.08.2017 15:00:00 27,3 12,5 30,4 20,8 17,8 23 12 42 23 W 16 37 0,0
18.08.2017 14:00:00 29,2 13,4 34,1 20,8 17,6 14 8 34 18 W 20 46 0,0
18.08.2017 13:00:00 28,9 12,7 31,3 20,9 17,7 12 6 26 14 S 20 54 0,0
18.08.2017 12:00:00 27,2 13,5 30,4 21,0 17,8 11 6 25 14 S 20 58 0,0
18.08.2017 11:00:00 24,8 12,7 27,7 21,2 17,7 14 8 21 12 SSE 20 60 0,0
18.08.2017 10:00:00 20,8 13,7 21,3 21,3 17,9 6 3 10 6 SE 20 60 0,0
18.08.2017 09:00:00 17,3 12,8 15,4 21,4 17,7 9 5 13 7 SE 20 60 0,0
18.08.2017 08:00:00 14,7 12,0 13,1 21,4 17,7 10 5 16 8 SE 20 33 0,0
18.08.2017 07:00:00 13,8 11,5 12,4 21,5 17,8 10 5 13 7 ESE 20 0 0,0
18.08.2017 06:00:00 13,7 11,7 12,9 21,6 17,9 9 5 15 8 ESE 20 0 0,0
18.08.2017 05:00:00 14,3 11,6 13,4 21,6 17,8 9 5 15 8 ESE 20 0 0,0
18.08.2017 04:00:00 14,8 11,8 13,8 21,6 17,6 8 4 11 6 ESE 20 0 0,0
18.08.2017 03:00:00 15,4 12,0 14,1 21,5 17,7 8 4 11 6 ESE 20 0 0,0
18.08.2017 02:00:00 16,0 12,0 12,3 21,4 17,7 4 2 6 3 SE 20 0 0,0
18.08.2017 01:00:00 16,7 12,0 12,6 21,3 17,9 0 0 7 4 N 20 0 0,0
18.08.2017 00:00:00 18,3 12,1 13,0 21,2 17,8 4 2 7 4 E 20 0 0,0
17.08.2017 23:00:00 19,0 11,8 13,7 20,9 17,8 0 0 10 5 N 20 0 0,0
17.08.2017 22:00:00 19,6 11,9 15,0 20,7 17,7 4 2 14 8 WNW 20 0 0,0
17.08.2017 21:00:00 22,1 12,4 19,9 20,5 17,6 5 3 23 13 WSW 20 0 0,0
17.08.2017 20:00:00 26,2 13,0 26,5 20,3 17,7 10 5 24 13 NW 20 52 0,0
17.08.2017 19:00:00 28,4 12,3 33,2 20,1 17,7 15 8 26 14 WNW 20 60 0,0
17.08.2017 18:00:00 28,5 12,8 34,1 19,9 17,8 13 7 31 17 W 20 60 0,0
17.08.2017 17:00:00 28,6 13,7 27,1 19,8 17,7 14 8 29 15 W 20 46 0,0
17.08.2017 16:00:00 27,7 12,9 31,2 19,8 17,7 11 6 26 14 SW 20 56 0,0
17.08.2017 15:00:00 28,1 13,6 34,1 19,8 17,7 9 5 23 13 W 20 58 0,0
17.08.2017 14:00:00 26,4 12,8 33,1 19,8 17,7 13 7 29 16 N 20 60 0,0
17.08.2017 13:00:00 25,8 12,6 32,6 19,9 17,8 13 7 28 15 W 19 60 0,0
17.08.2017 12:00:00 24,4 9,5 29,0 20,0 17,8 10 6 23 12 NW 20 60 0,0
17.08.2017 11:00:00 21,4 13,3 26,7 20,0 17,7 5 3 16 9 W 20 60 0,0
17.08.2017 10:00:00 18,1 14,6 20,7 20,1 17,7 3 2 7 4 WSW 20 60 0,0
17.08.2017 09:00:00 15,4 13,9 13,7 20,2 17,5 3 2 10 5 SSE 17 55 0,2
17.08.2017 08:00:00 13,8 13,5 11,7 20,2 17,9 8 4 10 5 SE 0,3 5 0,0
17.08.2017 07:00:00 13,3 13,0 8,8 20,3 17,8 6 3 10 5 E 0,2 0 0,0
17.08.2017 06:00:00 13,9 13,3 9,0 20,4 17,5 0 0 3 1 N 8 0 0,0
17.08.2017 05:00:00 14,2 13,6 9,2 20,4 17,8 0 0 3 2 N 8 0 0,0
17.08.2017 04:00:00 14,6 13,6 10,4 20,4 17,6 0 0 7 4 N 16 0 0,0
17.08.2017 03:00:00 15,6 13,8 12,7 20,3 17,7 3 1 5 3 W 20 0 0,0
17.08.2017 02:00:00 16,9 14,2 14,3 20,3 17,6 3 2 10 5 WSW 20 0 0,0
17.08.2017 01:00:00 16,6 13,7 14,2 20,2 17,7 5 3 13 7 W 20 0 0,0
17.08.2017 00:00:00 17,5 13,8 15,8 20,1 17,8 0 0 12 7 N 20 0 0,0
16.08.2017 23:00:00 18,4 14,3 17,0 20,0 17,7 6 4 21 12 W 20 0 0,0
16.08.2017 22:00:00 19,5 14,7 18,3 19,8 17,6 10 6 23 12 W 19 0 0,0
16.08.2017 21:00:00 21,0 15,1 20,2 19,8 17,9 8 4 20 11 W 20 0 0,0
16.08.2017 20:00:00 22,4 16,0 22,5 19,6 17,8 9 5 23 12 WSW 20 20 0,0
16.08.2017 19:00:00 24,3 16,3 25,6 19,6 17,7 13 7 24 13 W 20 32 0,0
16.08.2017 18:00:00 25,5 14,3 29,0 19,5 17,7 8 5 20 11 WSW 20 51 0,0
16.08.2017 17:00:00 26,0 12,1 30,2 19,5 17,7 11 6 18 10 SW 20 39 0,0
16.08.2017 16:00:00 25,1 10,2 28,8 19,5 17,6 6 3 12 7 SSW 20 28 0,0
16.08.2017 15:00:00 23,3 9,7 24,5 19,5 17,7 4 2 9 5 W 20 1 0,0
16.08.2017 14:00:00 22,5 7,8 23,0 19,6 17,7 2 1 13 7 WSW 20 1 0,0
16.08.2017 13:00:00 21,3 9,8 22,2 19,7 17,6 3 2 13 7 WSW 20 0 0,0
16.08.2017 12:00:00 21,6 8,8 24,9 19,7 17,7 9 5 17 9 W 20 28 0,0
16.08.2017 11:00:00 20,3 8,0 21,8 19,9 17,5 4 2 7 4 W 20 44 0,0
16.08.2017 10:00:00 18,3 11,4 17,6 20,0 17,5 4 2 9 5 SSE 20 53 0,0
16.08.2017 09:00:00 15,4 10,2 13,4 20,0 17,8 4 2 14 8 SE 20 60 0,0
16.08.2017 08:00:00 13,0 10,7 11,6 20,1 17,6 10 5 15 8 ESE 20 34 0,0
16.08.2017 07:00:00 12,6 10,7 11,1 20,2 17,8 11 6 16 9 ESE 20 0 0,0
16.08.2017 06:00:00 13,0 10,4 11,5 20,3 17,7 5 3 16 8 E 20 0 0,0
16.08.2017 05:00:00 13,4 11,5 12,5 20,3 17,6 10 5 16 9 ESE 20 0 0,0
16.08.2017 04:00:00 13,6 12,8 12,7 20,4 17,7 9 5 15 8 ESE 8 0 0,0
16.08.2017 03:00:00 14,7 13,4 12,2 20,4 17,5 10 5 14 8 ESE 20 0 0,0
16.08.2017 02:00:00 15,5 13,0 11,1 20,4 17,6 5 3 8 4 E 20 0 0,0
16.08.2017 01:00:00 15,7 13,7 12,9 20,4 17,7 6 3 11 6 NE 20 0 0,0
16.08.2017 00:00:00 16,8 14,3 15,9 20,4 17,6 6 3 16 8 ESE 20 0 0,0
15.08.2017 23:00:00 16,9 14,2 16,0 20,3 17,7 9 5 16 9 SE 20 0 0,0
15.08.2017 22:00:00 17,7 14,2 16,4 20,2 17,8 7 4 15 8 ESE 19 0 0,0
15.08.2017 21:00:00 18,0 13,1 16,4 20,1 17,7 0 0 14 8 N 20 0 0,2
15.08.2017 20:00:00 19,1 15,2 17,3 20,0 17,7 6 3 16 9 W 20 0 0,0
15.08.2017 19:00:00 19,9 16,5 18,3 19,9 17,5 11 6 18 10 E 20 0 0,2
15.08.2017 18:00:00 21,4 15,2 21,1 19,8 17,5 4 2 13 7 ENE 20 4 0,0
15.08.2017 17:00:00 21,5 16,5 17,8 19,8 17,6 9 5 44 24 W 20 8 0,4
15.08.2017 16:00:00 25,3 12,2 27,1 19,8 17,6 14 7 28 15 WSW 20 35 0,0
15.08.2017 15:00:00 25,7 11,8 30,8 19,9 17,7 9 5 26 14 S 20 60 0,0
15.08.2017 14:00:00 24,7 10,9 30,3 20,0 17,7 11 6 24 13 S 20 60 0,0
15.08.2017 13:00:00 23,9 9,8 27,6 20,0 17,6 12 7 24 13 S 20 58 0,0
15.08.2017 12:00:00 21,6 11,0 23,0 20,1 17,6 6 3 19 10 SSE 20 16 0,0
15.08.2017 11:00:00 18,4 11,0 16,3 20,2 17,8 7 4 13 7 ENE 20 0 0,0
15.08.2017 10:00:00 15,2 11,0 14,3 20,4 17,8 8 4 13 7 E 20 0 0,0
15.08.2017 09:00:00 14,6 10,2 11,9 20,5 17,5 8 4 14 8 ESE 20 10 0,0
15.08.2017 08:00:00 14,5 9,5 12,1 20,5 17,7 2 1 10 5 ESE 20 6 0,0
15.08.2017 07:00:00 12,9 8,4 9,6 20,6 17,7 8 5 13 7 ESE 20 0 0,0
15.08.2017 06:00:00 13,1 8,2 9,3 20,7 17,8 3 2 8 5 W 20 0 0,0
15.08.2017 05:00:00 12,8 8,3 10,9 20,7 17,6 7 4 16 9 WNW 20 0 0,0
15.08.2017 04:00:00 14,3 8,3 12,7 20,7 17,6 8 4 13 7 ESE 20 0 0,0
15.08.2017 03:00:00 15,9 8,1 12,4 20,7 17,7 5 3 14 7 E 20 0 0,0
15.08.2017 02:00:00 15,8 8,0 13,0 20,6 17,7 6 3 13 7 E 20 0 0,0
15.08.2017 01:00:00 18,0 7,4 14,2 20,6 17,6 4 2 15 8 ESE 20 0 0,0
15.08.2017 00:00:00 18,6 7,7 15,3 20,4 17,6 7 4 16 9 E 20 0 0,0
14.08.2017 23:00:00 19,1 7,8 15,4 20,3 17,5 7 4 21 12 ESE 20 0 0,0
14.08.2017 22:00:00 19,6 7,7 17,9 20,1 17,6 9 5 26 14 SE 20 0 0,0
14.08.2017 21:00:00 20,0 9,0 17,9 19,9 17,4 6 3 24 13 SE 20 0 0,0
14.08.2017 20:00:00 22,1 9,9 23,3 19,7 17,8 15 8 34 19 S 20 55 0,0
14.08.2017 19:00:00 23,8 10,8 26,8 19,5 17,7 17 9 34 18 S 20 60 0,0

tt = Température de l'air
td = dewpoint
tt 5cm = Température de l'air 5cm
tt -20cm = Température de l'air -20cm
tt -100cm = Température de l'air -100cm
ff = Vitesse du vent
fx = gusts
dd = Direction du vent
vv = visibility
sd = Ensoleillement
rr = Quantités de précipitations

stations d'obs. à proximité